Galena Park, Texas
Current Conditions -  °F | °C
As of 11:53 AM on Monday 22 Dec 2014 (Local Time) from KHOU Reporting Station
Broken Clouds Broken Clouds  
Wind Chill: 71°   Ceiling: 25000
Heat Index: 71°   Visibility: 10mi
Dew Point: 61°   Wind: 14mph
Humidity: 70%   Direction: 230°SW
Pressure: 29.71"   Gusts: 25mph
Location:  29.73°N, 95.24°W
Report Text: KHOU 221753Z 23012G22KT 10SM FEW025 BKN250 22/16 A2971 RMK AO2 SLP066 8/102 T02170161 10217 20122 58019
Loading
Personal Weather Stations






























Interactive Weather Map New forecast layout! Learn more

10-Day Weather Forecast

Advertisements
Track Severe Weather on mobile